sensor_id;sensor_type;location;lat;lon;timestamp;pressure;altitude;pressure_sealevel;temperature;humidity
40205;BME280;26963;42.666;23.366;2023-03-26T00:00:42;94459.19;;;14.25;48.10
40205;BME280;26963;42.666;23.366;2023-03-26T00:03:12;94414.34;;;13.87;48.20
40205;BME280;26963;42.666;23.366;2023-03-26T00:05:39;94403.25;;;13.89;48.26
40205;BME280;26963;42.666;23.366;2023-03-26T00:08:06;94256.19;;;12.78;47.98
40205;BME280;26963;42.666;23.366;2023-03-26T00:10:36;94351.13;;;13.51;48.26
40205;BME280;26963;42.666;23.366;2023-03-26T00:13:04;94412.16;;;13.80;48.31
40205;BME280;26963;42.666;23.366;2023-03-26T00:15:30;94458.16;;;14.17;48.27
40205;BME280;26963;42.666;23.366;2023-03-26T00:17:55;94439.38;;;14.09;48.57
40205;BME280;26963;42.666;23.366;2023-03-26T00:20:22;94436.19;;;14.07;48.47
40205;BME280;26963;42.666;23.366;2023-03-26T00:22:47;94436.34;;;14.10;48.63
40205;BME280;26963;42.666;23.366;2023-03-26T00:25:15;94446.13;;;14.15;48.25
40205;BME280;26963;42.666;23.366;2023-03-26T00:27:41;94443.94;;;14.08;48.14
40205;BME280;26963;42.666;23.366;2023-03-26T00:30:06;94372.75;;;13.54;48.35
40205;BME280;26963;42.666;23.366;2023-03-26T00:32:32;94376.41;;;13.50;48.57
40205;BME280;26963;42.666;23.366;2023-03-26T00:34:58;94432.38;;;13.86;48.92
40205;BME280;26963;42.666;23.366;2023-03-26T00:37:26;94433.16;;;13.87;48.98
40205;BME280;26963;42.666;23.366;2023-03-26T00:39:55;94401.00;;;13.69;48.83
40205;BME280;26963;42.666;23.366;2023-03-26T00:42:24;94398.50;;;13.64;48.79
40205;BME280;26963;42.666;23.366;2023-03-26T00:44:50;94335.13;;;13.16;48.80
40205;BME280;26963;42.666;23.366;2023-03-26T00:47:22;94402.16;;;13.60;48.96
40205;BME280;26963;42.666;23.366;2023-03-26T00:49:48;94412.72;;;13.65;49.13
40205;BME280;26963;42.666;23.366;2023-03-26T00:52:15;94396.47;;;13.52;48.67
40205;BME280;26963;42.666;23.366;2023-03-26T00:54:47;94307.09;;;12.96;49.12
40205;BME280;26963;42.666;23.366;2023-03-26T00:57:13;94411.31;;;13.59;48.77
40205;BME280;26963;42.666;23.366;2023-03-26T00:59:39;94424.13;;;13.62;48.74
40205;BME280;26963;42.666;23.366;2023-03-26T01:02:08;94423.94;;;13.67;48.77
40205;BME280;26963;42.666;23.366;2023-03-26T01:04:36;94422.88;;;13.59;49.00
40205;BME280;26963;42.666;23.366;2023-03-26T01:07:24;94426.94;;;13.65;48.63
40205;BME280;26963;42.666;23.366;2023-03-26T01:09:54;94429.03;;;13.60;48.37
40205;BME280;26963;42.666;23.366;2023-03-26T01:12:23;94404.88;;;13.51;47.80
40205;BME280;26963;42.666;23.366;2023-03-26T01:14:52;94436.75;;;13.61;47.47
40205;BME280;26963;42.666;23.366;2023-03-26T01:17:19;94438.19;;;13.59;47.35
40205;BME280;26963;42.666;23.366;2023-03-26T01:22:33;94438.34;;;13.62;47.91
40205;BME280;26963;42.666;23.366;2023-03-26T01:25:01;94435.97;;;13.61;48.02
40205;BME280;26963;42.666;23.366;2023-03-26T01:27:43;94458.25;;;13.61;48.00
40205;BME280;26963;42.666;23.366;2023-03-26T01:41:05;94441.09;;;13.36;48.46
40205;BME280;26963;42.666;23.366;2023-03-26T01:46:15;94448.09;;;13.37;48.48
40205;BME280;26963;42.666;23.366;2023-03-26T01:48:43;94441.41;;;13.34;48.88
40205;BME280;26963;42.666;23.366;2023-03-26T01:51:12;94390.47;;;12.99;48.71
40205;BME280;26963;42.666;23.366;2023-03-26T01:53:43;94464.50;;;13.44;48.77
40205;BME280;26963;42.666;23.366;2023-03-26T01:56:17;94430.56;;;13.22;49.05
40205;BME280;26963;42.666;23.366;2023-03-26T01:58:57;94464.19;;;13.46;48.99
40205;BME280;26963;42.666;23.366;2023-03-26T02:07:11;94406.25;;;13.10;49.64
40205;BME280;26963;42.666;23.366;2023-03-26T02:09:46;94462.59;;;13.36;49.42
40205;BME280;26963;42.666;23.366;2023-03-26T02:12:14;94456.13;;;13.28;49.47
40205;BME280;26963;42.666;23.366;2023-03-26T02:14:41;94438.00;;;13.16;49.83
40205;BME280;26963;42.666;23.366;2023-03-26T02:17:08;94451.25;;;13.21;50.02
40205;BME280;26963;42.666;23.366;2023-03-26T02:19:35;94454.13;;;13.16;50.31
40205;BME280;26963;42.666;23.366;2023-03-26T02:22:01;94451.59;;;13.11;50.40
40205;BME280;26963;42.666;23.366;2023-03-26T02:24:27;94431.91;;;12.81;50.49
40205;BME280;26963;42.666;23.366;2023-03-26T02:26:52;94437.41;;;12.84;50.93
40205;BME280;26963;42.666;23.366;2023-03-26T02:29:18;94464.91;;;12.99;50.82
40205;BME280;26963;42.666;23.366;2023-03-26T02:31:47;94439.66;;;12.82;51.38
40205;BME280;26963;42.666;23.366;2023-03-26T02:34:14;94426.25;;;12.73;51.24
40205;BME280;26963;42.666;23.366;2023-03-26T02:36:40;94441.56;;;12.73;51.08
40205;BME280;26963;42.666;23.366;2023-03-26T02:39:10;94470.28;;;12.81;51.48
40205;BME280;26963;42.666;23.366;2023-03-26T02:41:39;94419.31;;;12.55;51.69
40205;BME280;26963;42.666;23.366;2023-03-26T02:44:05;94469.63;;;12.84;51.46
40205;BME280;26963;42.666;23.366;2023-03-26T02:46:33;94448.81;;;12.64;51.73
40205;BME280;26963;42.666;23.366;2023-03-26T02:48:59;94438.41;;;12.71;51.66
40205;BME280;26963;42.666;23.366;2023-03-26T02:51:24;94467.75;;;12.94;51.66
40205;BME280;26963;42.666;23.366;2023-03-26T02:53:51;94390.13;;;12.36;51.78
40205;BME280;26963;42.666;23.366;2023-03-26T02:56:17;94452.44;;;12.77;51.91
40205;BME280;26963;42.666;23.366;2023-03-26T02:58:43;94453.56;;;12.67;51.89
40205;BME280;26963;42.666;23.366;2023-03-26T03:01:08;94490.19;;;12.80;52.54
40205;BME280;26963;42.666;23.366;2023-03-26T03:03:34;94492.09;;;12.71;52.49
40205;BME280;26963;42.666;23.366;2023-03-26T03:06:00;94492.88;;;12.71;52.80
40205;BME280;26963;42.666;23.366;2023-03-26T03:08:26;94475.03;;;12.49;52.68
40205;BME280;26963;42.666;23.366;2023-03-26T03:13:25;94492.06;;;12.53;52.59
40205;BME280;26963;42.666;23.366;2023-03-26T03:15:51;94498.69;;;12.47;52.20
40205;BME280;26963;42.666;23.366;2023-03-26T03:18:16;94494.59;;;12.41;52.46
40205;BME280;26963;42.666;23.366;2023-03-26T03:20:42;94499.78;;;12.46;52.37
40205;BME280;26963;42.666;23.366;2023-03-26T03:23:09;94510.69;;;12.41;52.35
40205;BME280;26963;42.666;23.366;2023-03-26T03:25:34;94487.94;;;12.30;52.40
40205;BME280;26963;42.666;23.366;2023-03-26T03:28:00;94509.59;;;12.42;52.52
40205;BME280;26963;42.666;23.366;2023-03-26T03:30:25;94506.91;;;12.42;52.50
40205;BME280;26963;42.666;23.366;2023-03-26T03:32:51;94521.41;;;12.41;52.68
40205;BME280;26963;42.666;23.366;2023-03-26T03:35:16;94501.34;;;12.30;52.41
40205;BME280;26963;42.666;23.366;2023-03-26T03:37:42;94516.06;;;12.41;52.58
40205;BME280;26963;42.666;23.366;2023-03-26T03:40:08;94459.34;;;11.99;52.48
40205;BME280;26963;42.666;23.366;2023-03-26T03:42:35;94447.00;;;11.89;52.53
40205;BME280;26963;42.666;23.366;2023-03-26T03:45:04;94490.78;;;12.24;52.56
40205;BME280;26963;42.666;23.366;2023-03-26T03:47:30;94457.38;;;11.90;52.54
40205;BME280;26963;42.666;23.366;2023-03-26T03:49:56;94510.03;;;12.27;52.77
40205;BME280;26963;42.666;23.366;2023-03-26T03:52:25;94443.34;;;11.76;52.94
40205;BME280;26963;42.666;23.366;2023-03-26T03:54:51;94523.59;;;12.21;52.75
40205;BME280;26963;42.666;23.366;2023-03-26T03:57:17;94506.81;;;12.07;52.85
40205;BME280;26963;42.666;23.366;2023-03-26T03:59:43;94502.28;;;12.07;53.27
40205;BME280;26963;42.666;23.366;2023-03-26T04:02:09;94492.97;;;12.05;53.15
40205;BME280;26963;42.666;23.366;2023-03-26T04:04:35;94517.28;;;12.17;53.22
40205;BME280;26963;42.666;23.366;2023-03-26T04:07:03;94518.22;;;12.21;53.01
40205;BME280;26963;42.666;23.366;2023-03-26T04:09:29;94462.91;;;11.85;53.07
40205;BME280;26963;42.666;23.366;2023-03-26T04:11:55;94513.63;;;12.13;53.00
40205;BME280;26963;42.666;23.366;2023-03-26T04:14:20;94521.06;;;12.16;52.84
40205;BME280;26963;42.666;23.366;2023-03-26T04:16:46;94528.31;;;12.24;52.67
40205;BME280;26963;42.666;23.366;2023-03-26T04:19:14;94535.28;;;12.26;52.51
40205;BME280;26963;42.666;23.366;2023-03-26T04:21:39;94532.09;;;12.23;52.30
40205;BME280;26963;42.666;23.366;2023-03-26T04:24:08;94543.19;;;12.31;52.13
40205;BME280;26963;42.666;23.366;2023-03-26T04:26:34;94573.81;;;12.47;52.04
40205;BME280;26963;42.666;23.366;2023-03-26T04:29:02;94580.94;;;12.52;51.90
40205;BME280;26963;42.666;23.366;2023-03-26T04:31:29;94582.38;;;12.49;51.88
40205;BME280;26963;42.666;23.366;2023-03-26T04:34:07;94586.16;;;12.57;51.74
40205;BME280;26963;42.666;23.366;2023-03-26T04:36:37;94592.16;;;12.63;51.88
40205;BME280;26963;42.666;23.366;2023-03-26T04:39:05;94595.97;;;12.62;51.68
40205;BME280;26963;42.666;23.366;2023-03-26T04:41:31;94572.25;;;12.46;51.82
40205;BME280;26963;42.666;23.366;2023-03-26T04:43:57;94611.09;;;12.57;51.58
40205;BME280;26963;42.666;23.366;2023-03-26T04:46:26;94612.34;;;12.51;51.91
40205;BME280;26963;42.666;23.366;2023-03-26T04:48:53;94551.81;;;12.10;51.97
40205;BME280;26963;42.666;23.366;2023-03-26T04:51:20;94599.38;;;12.36;51.87
40205;BME280;26963;42.666;23.366;2023-03-26T04:53:56;94567.75;;;12.15;51.73
40205;BME280;26963;42.666;23.366;2023-03-26T04:58:48;94584.81;;;12.28;51.54
40205;BME280;26963;42.666;23.366;2023-03-26T05:01:14;94599.72;;;12.43;51.42
40205;BME280;26963;42.666;23.366;2023-03-26T05:03:41;94601.13;;;12.40;51.42
40205;BME280;26963;42.666;23.366;2023-03-26T05:06:09;94604.28;;;12.51;51.06
40205;BME280;26963;42.666;23.366;2023-03-26T05:08:35;94573.63;;;12.35;50.98
40205;BME280;26963;42.666;23.366;2023-03-26T05:11:00;94605.56;;;12.45;50.58
40205;BME280;26963;42.666;23.366;2023-03-26T05:13:26;94575.81;;;12.24;50.58
40205;BME280;26963;42.666;23.366;2023-03-26T05:15:51;94596.22;;;12.34;50.49
40205;BME280;26963;42.666;23.366;2023-03-26T05:18:17;94616.16;;;12.50;50.43
40205;BME280;26963;42.666;23.366;2023-03-26T05:20:44;94612.50;;;12.55;50.04
40205;BME280;26963;42.666;23.366;2023-03-26T05:23:10;94539.19;;;12.11;49.50
40205;BME280;26963;42.666;23.366;2023-03-26T05:25:36;94617.44;;;12.62;49.47
40205;BME280;26963;42.666;23.366;2023-03-26T05:28:02;94587.38;;;12.42;49.69
40205;BME280;26963;42.666;23.366;2023-03-26T05:30:27;94576.66;;;12.42;49.69
40205;BME280;26963;42.666;23.366;2023-03-26T05:32:53;94566.56;;;12.39;49.78
40205;BME280;26963;42.666;23.366;2023-03-26T05:35:19;94630.88;;;12.88;49.78
40205;BME280;26963;42.666;23.366;2023-03-26T05:37:45;94639.44;;;12.99;49.92
40205;BME280;26963;42.666;23.366;2023-03-26T05:40:12;94631.06;;;13.00;49.55
40205;BME280;26963;42.666;23.366;2023-03-26T05:42:40;94601.19;;;12.84;49.70
40205;BME280;26963;42.666;23.366;2023-03-26T05:45:08;94590.31;;;12.81;49.49
40205;BME280;26963;42.666;23.366;2023-03-26T05:47:34;94601.69;;;12.86;49.47
40205;BME280;26963;42.666;23.366;2023-03-26T05:50:00;94580.50;;;12.76;49.84
40205;BME280;26963;42.666;23.366;2023-03-26T05:52:26;94615.28;;;12.99;49.53
40205;BME280;26963;42.666;23.366;2023-03-26T05:54:52;94643.09;;;13.20;49.21
40205;BME280;26963;42.666;23.366;2023-03-26T05:57:17;94583.34;;;12.80;48.78
40205;BME280;26963;42.666;23.366;2023-03-26T05:59:43;94619.69;;;13.12;48.90
40205;BME280;26963;42.666;23.366;2023-03-26T06:02:09;94599.31;;;13.02;48.79
40205;BME280;26963;42.666;23.366;2023-03-26T06:04:35;94632.34;;;13.20;49.00
40205;BME280;26963;42.666;23.366;2023-03-26T06:07:06;94549.25;;;12.80;49.17
40205;BME280;26963;42.666;23.366;2023-03-26T06:09:36;94623.50;;;13.29;48.78
40205;BME280;26963;42.666;23.366;2023-03-26T06:12:04;94625.06;;;13.21;48.62
40205;BME280;26963;42.666;23.366;2023-03-26T06:14:30;94577.69;;;12.99;48.51
40205;BME280;26963;42.666;23.366;2023-03-26T06:16:55;94625.72;;;13.27;47.67
40205;BME280;26963;42.666;23.366;2023-03-26T06:19:21;94615.28;;;13.16;48.09
40205;BME280;26963;42.666;23.366;2023-03-26T06:21:47;94540.88;;;12.73;47.81
40205;BME280;26963;42.666;23.366;2023-03-26T06:24:12;94571.03;;;12.87;47.39
40205;BME280;26963;42.666;23.366;2023-03-26T06:26:38;94597.75;;;13.10;46.90
40205;BME280;26963;42.666;23.366;2023-03-26T06:29:04;94614.47;;;13.16;46.78
40205;BME280;26963;42.666;23.366;2023-03-26T06:31:29;94620.19;;;13.23;47.15
40205;BME280;26963;42.666;23.366;2023-03-26T06:33:55;94618.91;;;13.12;46.76
40205;BME280;26963;42.666;23.366;2023-03-26T06:36:20;94611.63;;;13.21;46.44
40205;BME280;26963;42.666;23.366;2023-03-26T06:38:46;94557.13;;;12.85;46.56
40205;BME280;26963;42.666;23.366;2023-03-26T06:41:12;94615.44;;;13.37;46.46
40205;BME280;26963;42.666;23.366;2023-03-26T06:43:37;94582.38;;;15.55;42.20
40205;BME280;26963;42.666;23.366;2023-03-26T06:46:04;94609.72;;;18.56;36.78
40205;BME280;26963;42.666;23.366;2023-03-26T06:48:30;94542.13;;;20.47;31.87
40205;BME280;26963;42.666;23.366;2023-03-26T06:50:55;94592.38;;;22.54;29.11
40205;BME280;26963;42.666;23.366;2023-03-26T06:53:21;94609.22;;;24.25;27.03
40205;BME280;26963;42.666;23.366;2023-03-26T06:55:46;94631.41;;;25.68;24.45
40205;BME280;26963;42.666;23.366;2023-03-26T06:58:12;94627.94;;;26.95;23.16
40205;BME280;26963;42.666;23.366;2023-03-26T07:00:39;94624.38;;;28.09;21.84
40205;BME280;26963;42.666;23.366;2023-03-26T07:03:04;94632.25;;;29.12;20.82
40205;BME280;26963;42.666;23.366;2023-03-26T07:05:30;94620.72;;;29.82;19.87
40205;BME280;26963;42.666;23.366;2023-03-26T07:07:56;94623.03;;;30.60;18.85
40205;BME280;26963;42.666;23.366;2023-03-26T07:10:22;94608.53;;;31.05;17.49
40205;BME280;26963;42.666;23.366;2023-03-26T07:12:47;94628.19;;;31.70;16.50
40205;BME280;26963;42.666;23.366;2023-03-26T07:15:13;94629.28;;;32.15;16.13
40205;BME280;26963;42.666;23.366;2023-03-26T07:17:38;94632.22;;;32.50;15.67
40205;BME280;26963;42.666;23.366;2023-03-26T07:20:05;94624.34;;;33.00;15.74
40205;BME280;26963;42.666;23.366;2023-03-26T07:22:33;94620.66;;;33.51;15.04
40205;BME280;26963;42.666;23.366;2023-03-26T07:24:59;94628.75;;;34.03;14.76
40205;BME280;26963;42.666;23.366;2023-03-26T07:27:34;94619.69;;;34.34;14.05
40205;BME280;26963;42.666;23.366;2023-03-26T07:30:05;94620.41;;;34.66;13.89
40205;BME280;26963;42.666;23.366;2023-03-26T07:35:40;94610.66;;;35.11;13.74
40205;BME280;26963;42.666;23.366;2023-03-26T07:38:26;94551.47;;;34.83;13.19
40205;BME280;26963;42.666;23.366;2023-03-26T07:41:13;94605.78;;;35.52;13.19
40205;BME280;26963;42.666;23.366;2023-03-26T07:43:55;94540.72;;;35.59;12.89
40205;BME280;26963;42.666;23.366;2023-03-26T07:46:29;94614.66;;;36.31;12.10
40205;BME280;26963;42.666;23.366;2023-03-26T07:48:56;94556.41;;;35.99;11.88
40205;BME280;26963;42.666;23.366;2023-03-26T07:51:24;94564.97;;;36.29;11.89
40205;BME280;26963;42.666;23.366;2023-03-26T07:53:51;94518.81;;;36.04;12.01
40205;BME280;26963;42.666;23.366;2023-03-26T07:56:19;94609.97;;;36.46;11.65
40205;BME280;26963;42.666;23.366;2023-03-26T08:04:02;94568.06;;;35.70;11.83
40205;BME280;26963;42.666;23.366;2023-03-26T08:06:41;94606.09;;;35.91;12.00
40205;BME280;26963;42.666;23.366;2023-03-26T08:09:13;94605.44;;;36.06;12.05
40205;BME280;26963;42.666;23.366;2023-03-26T08:16:53;94579.34;;;36.37;11.25
40205;BME280;26963;42.666;23.366;2023-03-26T08:22:26;94606.22;;;36.59;10.91
40205;BME280;26963;42.666;23.366;2023-03-26T08:25:16;94603.63;;;36.79;11.26
40205;BME280;26963;42.666;23.366;2023-03-26T08:30:29;94618.78;;;36.78;10.91
40205;BME280;26963;42.666;23.366;2023-03-26T08:33:18;94589.88;;;36.42;9.97
40205;BME280;26963;42.666;23.366;2023-03-26T08:35:44;94603.94;;;35.40;10.21
40205;BME280;26963;42.666;23.366;2023-03-26T08:38:15;94607.47;;;35.22;10.74
40205;BME280;26963;42.666;23.366;2023-03-26T08:47:10;94615.41;;;34.42;11.79
40205;BME280;26963;42.666;23.366;2023-03-26T08:57:36;94605.56;;;30.30;14.83
40205;BME280;26963;42.666;23.366;2023-03-26T09:16:28;94612.34;;;25.14;19.74
40205;BME280;26963;42.666;23.366;2023-03-26T09:19:53;94573.31;;;24.88;19.59
40205;BME280;26963;42.666;23.366;2023-03-26T09:34:00;94597.22;;;23.35;21.20
40205;BME280;26963;42.666;23.366;2023-03-26T09:36:44;94584.69;;;23.26;21.26
40205;BME280;26963;42.666;23.366;2023-03-26T09:53:22;94580.56;;;22.88;22.15
40205;BME280;26963;42.666;23.366;2023-03-26T09:59:06;94570.09;;;22.97;21.92
40205;BME280;26963;42.666;23.366;2023-03-26T10:12:45;94537.50;;;23.22;20.20
40205;BME280;26963;42.666;23.366;2023-03-26T10:15:55;94546.38;;;23.12;20.88
40205;BME280;26963;42.666;23.366;2023-03-26T10:18:47;94529.09;;;22.86;20.81
40205;BME280;26963;42.666;23.366;2023-03-26T10:21:29;94547.03;;;22.87;21.53
40205;BME280;26963;42.666;23.366;2023-03-26T10:32:34;94515.03;;;22.80;21.14
40205;BME280;26963;42.666;23.366;2023-03-26T10:40:43;94450.31;;;22.67;20.42
40205;BME280;26963;42.666;23.366;2023-03-26T10:51:46;94501.44;;;22.91;20.43
40205;BME280;26963;42.666;23.366;2023-03-26T10:54:34;94433.47;;;22.50;20.16
40205;BME280;26963;42.666;23.366;2023-03-26T10:57:10;94416.28;;;22.39;20.62
40205;BME280;26963;42.666;23.366;2023-03-26T10:59:38;94479.97;;;22.79;20.65
40205;BME280;26963;42.666;23.366;2023-03-26T11:02:25;94477.63;;;22.81;20.97
40205;BME280;26963;42.666;23.366;2023-03-26T11:07:50;94418.13;;;22.27;19.85
40205;BME280;26963;42.666;23.366;2023-03-26T11:16:04;94482.72;;;22.23;20.14
40205;BME280;26963;42.666;23.366;2023-03-26T11:21:03;94479.97;;;22.20;20.06
40205;BME280;26963;42.666;23.366;2023-03-26T11:23:36;94467.91;;;22.21;19.52
40205;BME280;26963;42.666;23.366;2023-03-26T11:33:56;94460.16;;;22.26;20.28
40205;BME280;26963;42.666;23.366;2023-03-26T11:36:32;94458.59;;;22.25;19.19
40205;BME280;26963;42.666;23.366;2023-03-26T11:39:00;94450.03;;;22.23;18.57
40205;BME280;26963;42.666;23.366;2023-03-26T11:41:27;94445.63;;;22.11;18.80
40205;BME280;26963;42.666;23.366;2023-03-26T11:43:55;94454.59;;;22.08;19.89
40205;BME280;26963;42.666;23.366;2023-03-26T11:46:24;94435.91;;;22.10;19.42
40205;BME280;26963;42.666;23.366;2023-03-26T11:49:00;94426.53;;;22.08;19.26
40205;BME280;26963;42.666;23.366;2023-03-26T11:51:31;94420.22;;;21.96;19.23
40205;BME280;26963;42.666;23.366;2023-03-26T11:53:58;94417.75;;;21.77;19.41
40205;BME280;26963;42.666;23.366;2023-03-26T11:58:53;94403.63;;;21.60;18.62
40205;BME280;26963;42.666;23.366;2023-03-26T12:01:23;94398.69;;;21.35;18.41
40205;BME280;26963;42.666;23.366;2023-03-26T12:04:05;94396.91;;;21.09;18.56
40205;BME280;26963;42.666;23.366;2023-03-26T12:06:35;94388.28;;;21.04;18.73
40205;BME280;26963;42.666;23.366;2023-03-26T12:09:00;94393.00;;;21.10;19.95
40205;BME280;26963;42.666;23.366;2023-03-26T12:11:27;94388.47;;;21.22;20.00
40205;BME280;26963;42.666;23.366;2023-03-26T12:13:59;94385.38;;;21.23;19.92
40205;BME280;26963;42.666;23.366;2023-03-26T12:16:25;94383.41;;;21.20;19.61
40205;BME280;26963;42.666;23.366;2023-03-26T12:21:22;94379.09;;;21.19;19.84
40205;BME280;26963;42.666;23.366;2023-03-26T12:26:42;94363.63;;;21.27;19.62
40205;BME280;26963;42.666;23.366;2023-03-26T12:29:14;94354.34;;;21.31;19.08
40205;BME280;26963;42.666;23.366;2023-03-26T12:31:40;94354.44;;;21.39;19.36
40205;BME280;26963;42.666;23.366;2023-03-26T12:34:17;94353.28;;;21.40;19.44
40205;BME280;26963;42.666;23.366;2023-03-26T12:36:46;94352.84;;;21.38;19.55
40205;BME280;26963;42.666;23.366;2023-03-26T12:39:27;94334.22;;;21.40;19.41
40205;BME280;26963;42.666;23.366;2023-03-26T12:41:57;94336.50;;;21.34;18.78
40205;BME280;26963;42.666;23.366;2023-03-26T12:44:31;94325.47;;;21.16;18.14
40205;BME280;26963;42.666;23.366;2023-03-26T12:47:40;94318.72;;;21.02;17.56
40205;BME280;26963;42.666;23.366;2023-03-26T12:49:47;94324.63;;;20.71;17.93
40205;BME280;26963;42.666;23.366;2023-03-26T13:02:24;94309.91;;;20.41;17.46
40205;BME280;26963;42.666;23.366;2023-03-26T13:07:40;94312.97;;;20.36;18.10
40205;BME280;26963;42.666;23.366;2023-03-26T13:10:21;94313.66;;;20.29;17.71
40205;BME280;26963;42.666;23.366;2023-03-26T13:23:07;94295.13;;;19.78;17.69
40205;BME280;26963;42.666;23.366;2023-03-26T13:25:36;94293.44;;;19.69;16.73
40205;BME280;26963;42.666;23.366;2023-03-26T13:30:46;94304.22;;;19.62;17.38
40205;BME280;26963;42.666;23.366;2023-03-26T13:33:24;94306.50;;;19.60;17.01
40205;BME280;26963;42.666;23.366;2023-03-26T13:41:15;94297.88;;;19.54;16.87
40205;BME280;26963;42.666;23.366;2023-03-26T13:48:59;94300.13;;;19.49;16.77
40205;BME280;26963;42.666;23.366;2023-03-26T13:51:28;94290.78;;;19.46;17.58
40205;BME280;26963;42.666;23.366;2023-03-26T13:54:15;94287.69;;;19.48;16.89
40205;BME280;26963;42.666;23.366;2023-03-26T13:56:49;94296.22;;;19.46;17.48
40205;BME280;26963;42.666;23.366;2023-03-26T14:04:36;94276.16;;;19.28;17.69
40205;BME280;26963;42.666;23.366;2023-03-26T14:07:21;94288.94;;;19.27;17.69
40205;BME280;26963;42.666;23.366;2023-03-26T14:10:08;94285.09;;;19.28;17.14
40205;BME280;26963;42.666;23.366;2023-03-26T14:12:42;94279.72;;;19.32;18.52
40205;BME280;26963;42.666;23.366;2023-03-26T14:15:26;94271.28;;;19.37;17.43
40205;BME280;26963;42.666;23.366;2023-03-26T14:17:56;94271.22;;;19.33;16.70
40205;BME280;26963;42.666;23.366;2023-03-26T14:25:41;94265.81;;;19.33;17.40
40205;BME280;26963;42.666;23.366;2023-03-26T14:28:47;94260.44;;;19.37;17.91
40205;BME280;26963;42.666;23.366;2023-03-26T14:36:28;94263.41;;;19.28;17.61
40205;BME280;26963;42.666;23.366;2023-03-26T14:49:12;94255.97;;;19.25;18.32
40205;BME280;26963;42.666;23.366;2023-03-26T14:51:50;94250.16;;;19.23;18.99
40205;BME280;26963;42.666;23.366;2023-03-26T14:54:25;94256.03;;;19.29;19.52
40205;BME280;26963;42.666;23.366;2023-03-26T14:57:37;94205.50;;;18.90;19.38
40205;BME280;26963;42.666;23.366;2023-03-26T14:59:42;94250.19;;;19.27;19.81
40205;BME280;26963;42.666;23.366;2023-03-26T15:10:48;94259.53;;;19.29;20.01
40205;BME280;26963;42.666;23.366;2023-03-26T15:13:02;94256.47;;;19.31;19.23
40205;BME280;26963;42.666;23.366;2023-03-26T15:39:06;94260.97;;;18.77;19.19
40205;BME280;26963;42.666;23.366;2023-03-26T15:41:53;94267.16;;;18.77;18.44
40205;BME280;26963;42.666;23.366;2023-03-26T15:51:44;94270.13;;;18.68;19.78
40205;BME280;26963;42.666;23.366;2023-03-26T16:02:28;94270.16;;;18.49;20.25
40205;BME280;26963;42.666;23.366;2023-03-26T16:05:17;94272.44;;;18.47;20.31
40205;BME280;26963;42.666;23.366;2023-03-26T16:15:53;94278.47;;;18.17;20.89
40205;BME280;26963;42.666;23.366;2023-03-26T16:18:41;94271.31;;;18.08;21.51
40205;BME280;26963;42.666;23.366;2023-03-26T16:23:53;94277.75;;;18.00;21.72
40205;BME280;26963;42.666;23.366;2023-03-26T16:26:53;94280.38;;;17.97;22.20
40205;BME280;26963;42.666;23.366;2023-03-26T16:29:17;94283.69;;;17.90;21.82
40205;BME280;26963;42.666;23.366;2023-03-26T16:34:28;94281.53;;;17.80;22.09
40205;BME280;26963;42.666;23.366;2023-03-26T16:37:01;94288.00;;;17.75;22.64
40205;BME280;26963;42.666;23.366;2023-03-26T16:39:37;94291.78;;;17.70;22.67
40205;BME280;26963;42.666;23.366;2023-03-26T16:47:10;94294.31;;;17.63;23.23
40205;BME280;26963;42.666;23.366;2023-03-26T16:57:53;94291.47;;;17.40;23.63
40205;BME280;26963;42.666;23.366;2023-03-26T17:02:52;94301.34;;;17.32;23.86
40205;BME280;26963;42.666;23.366;2023-03-26T17:12:47;94295.34;;;17.23;24.36
40205;BME280;26963;42.666;23.366;2023-03-26T17:26:09;94311.97;;;17.25;24.64
40205;BME280;26963;42.666;23.366;2023-03-26T17:33:48;94310.25;;;17.17;24.77
40205;BME280;26963;42.666;23.366;2023-03-26T17:36:22;94311.66;;;17.10;25.43
40205;BME280;26963;42.666;23.366;2023-03-26T17:38:53;94309.22;;;17.05;25.21
40205;BME280;26963;42.666;23.366;2023-03-26T17:44:21;94310.66;;;16.87;25.91
40205;BME280;26963;42.666;23.366;2023-03-26T17:46:49;94313.16;;;16.79;26.02
40205;BME280;26963;42.666;23.366;2023-03-26T17:49:25;94303.75;;;16.73;26.30
40205;BME280;26963;42.666;23.366;2023-03-26T17:51:57;94308.97;;;16.66;26.48
40205;BME280;26963;42.666;23.366;2023-03-26T17:54:41;94304.06;;;16.56;26.58
40205;BME280;26963;42.666;23.366;2023-03-26T17:59:40;94301.22;;;16.36;27.14
40205;BME280;26963;42.666;23.366;2023-03-26T18:02:11;94304.16;;;16.31;27.23
40205;BME280;26963;42.666;23.366;2023-03-26T18:04:39;94299.38;;;16.24;27.46
40205;BME280;26963;42.666;23.366;2023-03-26T18:14:37;94294.38;;;16.10;27.17
40205;BME280;26963;42.666;23.366;2023-03-26T18:17:08;94293.47;;;16.06;27.25
40205;BME280;26963;42.666;23.366;2023-03-26T18:22:33;94295.97;;;15.99;27.23
40205;BME280;26963;42.666;23.366;2023-03-26T18:24:59;94300.91;;;15.97;27.27
40205;BME280;26963;42.666;23.366;2023-03-26T18:27:27;94300.03;;;15.93;27.23
40205;BME280;26963;42.666;23.366;2023-03-26T18:32:23;94284.97;;;15.79;27.26
40205;BME280;26963;42.666;23.366;2023-03-26T18:34:54;94287.66;;;15.79;27.26
40205;BME280;26963;42.666;23.366;2023-03-26T18:42:21;94276.44;;;15.77;27.50
40205;BME280;26963;42.666;23.366;2023-03-26T18:44:48;94283.75;;;15.77;27.61
40205;BME280;26963;42.666;23.366;2023-03-26T18:47:15;94268.78;;;15.79;27.48
40205;BME280;26963;42.666;23.366;2023-03-26T18:49:41;94270.25;;;15.77;27.70
40205;BME280;26963;42.666;23.366;2023-03-26T18:52:09;94270.25;;;15.77;27.93
40205;BME280;26963;42.666;23.366;2023-03-26T18:54:37;94269.47;;;15.76;27.71
40205;BME280;26963;42.666;23.366;2023-03-26T18:57:09;94260.94;;;15.74;27.78